createdAt,value
2022-10-31T00:01:30.297Z,7.99
2022-10-31T00:03:58.206Z,7.99
2022-10-31T00:06:26.880Z,7.99
2022-10-31T00:09:01.175Z,7.99
2022-10-31T00:11:29.780Z,7.98
2022-10-31T00:13:59.796Z,8.02
2022-10-31T00:16:28.754Z,8.05
2022-10-31T00:18:59.589Z,8.06
2022-10-31T00:21:28.491Z,7.99
2022-10-31T00:23:56.452Z,7.90
2022-10-31T00:26:24.226Z,7.87
2022-10-31T00:28:52.333Z,7.90
2022-10-31T00:31:20.609Z,7.94
2022-10-31T00:33:48.358Z,7.94
2022-10-31T00:36:20.440Z,7.90
2022-10-31T00:38:49.163Z,7.84
2022-10-31T00:41:18.705Z,7.82
2022-10-31T00:43:47.187Z,7.84
2022-10-31T00:46:16.273Z,7.87
2022-10-31T00:48:44.347Z,7.87
2022-10-31T00:51:12.219Z,7.87
2022-10-31T00:53:41.205Z,7.86
2022-10-31T00:56:09.566Z,7.87
2022-10-31T00:58:37.406Z,7.87
2022-10-31T01:01:05.840Z,7.85
2022-10-31T01:03:36.165Z,7.83
2022-10-31T01:06:08.012Z,7.74
2022-10-31T01:08:37.219Z,7.62
2022-10-31T01:11:12.876Z,7.50
2022-10-31T01:13:42.889Z,7.42
2022-10-31T01:16:18.689Z,7.37
2022-10-31T01:18:47.324Z,7.33
2022-10-31T01:21:18.707Z,7.35
2022-10-31T01:23:46.957Z,7.41
2022-10-31T01:26:19.223Z,7.43
2022-10-31T01:28:53.140Z,7.46
2022-10-31T01:31:23.251Z,7.49
2022-10-31T01:33:51.528Z,7.52
2022-10-31T01:36:24.237Z,7.48
2022-10-31T01:38:54.636Z,7.44
2022-10-31T01:41:25.414Z,7.37
2022-10-31T01:44:02.065Z,7.33
2022-10-31T01:46:35.451Z,7.31
2022-10-31T01:49:10.682Z,7.36
2022-10-31T01:51:45.906Z,7.40
2022-10-31T01:54:17.108Z,7.42
2022-10-31T01:56:50.374Z,7.36
2022-10-31T01:59:21.903Z,7.37
2022-10-31T02:01:51.979Z,7.37
2022-10-31T02:04:21.746Z,7.41
2022-10-31T02:06:59.555Z,7.47
2022-10-31T02:09:28.233Z,7.52
2022-10-31T02:11:58.872Z,7.54
2022-10-31T02:14:30.273Z,7.54
2022-10-31T02:16:59.024Z,7.43
2022-10-31T02:19:55.631Z,7.31
2022-10-31T02:22:49.013Z,7.29
2022-10-31T02:25:38.986Z,7.34
2022-10-31T02:28:28.482Z,7.34
2022-10-31T02:31:26.754Z,7.32
2022-10-31T02:33:56.643Z,7.26
2022-10-31T02:36:39.893Z,7.24
2022-10-31T02:39:18.208Z,7.27
2022-10-31T02:42:33.489Z,7.27
2022-10-31T02:45:27.164Z,7.23
2022-10-31T02:48:00.187Z,7.20
2022-10-31T02:50:35.251Z,7.18
2022-10-31T02:53:04.687Z,7.17
2022-10-31T02:55:35.728Z,7.22
2022-10-31T02:58:11.899Z,7.23
2022-10-31T03:00:58.032Z,7.23
2022-10-31T03:03:45.935Z,7.22
2022-10-31T03:06:47.008Z,7.20
2022-10-31T03:09:26.000Z,7.20
2022-10-31T03:12:04.003Z,7.16
2022-10-31T03:14:42.096Z,7.09
2022-10-31T03:17:26.471Z,7.06
2022-10-31T03:19:59.349Z,7.03
2022-10-31T03:22:32.252Z,7.03
2022-10-31T03:25:03.987Z,6.99
2022-10-31T03:27:35.487Z,6.99
2022-10-31T03:30:08.934Z,6.98
2022-10-31T03:32:58.873Z,6.97
2022-10-31T03:35:29.569Z,6.97
2022-10-31T03:38:04.196Z,6.96
2022-10-31T03:40:39.323Z,6.96
2022-10-31T03:43:11.668Z,6.91
2022-10-31T03:45:44.249Z,6.90
2022-10-31T03:48:16.192Z,6.84
2022-10-31T03:51:02.979Z,6.81
2022-10-31T03:53:38.109Z,6.76
2022-10-31T03:56:18.078Z,6.76
2022-10-31T03:58:59.428Z,6.78
2022-10-31T04:01:32.517Z,6.79
2022-10-31T04:04:02.840Z,6.82
2022-10-31T04:06:32.212Z,6.76
2022-10-31T04:09:05.228Z,6.76
2022-10-31T04:11:38.010Z,6.76
2022-10-31T04:14:33.681Z,6.74
2022-10-31T04:17:06.237Z,6.68
2022-10-31T04:19:37.560Z,6.68
2022-10-31T04:22:05.425Z,6.68
2022-10-31T04:24:33.115Z,6.69
2022-10-31T04:27:01.272Z,6.69
2022-10-31T04:29:29.729Z,6.68
2022-10-31T04:31:57.813Z,6.69
2022-10-31T04:34:26.341Z,6.62
2022-10-31T04:36:54.276Z,6.64
2022-10-31T04:39:26.614Z,6.62
2022-10-31T04:42:14.961Z,6.63
2022-10-31T04:44:42.958Z,6.64
2022-10-31T04:47:10.826Z,6.65
2022-10-31T04:49:38.616Z,6.62
2022-10-31T04:52:07.113Z,6.48
2022-10-31T04:54:34.879Z,6.35
2022-10-31T04:57:45.506Z,6.29
2022-10-31T05:00:16.755Z,6.27
2022-10-31T05:02:51.071Z,6.28
2022-10-31T05:05:21.600Z,6.28
2022-10-31T05:07:51.011Z,6.22
2022-10-31T05:10:28.194Z,6.14
2022-10-31T05:13:00.267Z,6.07
2022-10-31T05:15:54.576Z,6.07
2022-10-31T05:18:22.674Z,6.12
2022-10-31T05:21:13.481Z,6.20
2022-10-31T05:23:53.336Z,6.19
2022-10-31T05:26:21.956Z,6.21
2022-10-31T05:28:49.927Z,6.13
2022-10-31T05:31:17.828Z,6.05
2022-10-31T05:33:45.866Z,6.02
2022-10-31T05:36:32.370Z,6.08
2022-10-31T05:39:10.172Z,6.12
2022-10-31T05:41:42.952Z,6.15
2022-10-31T05:44:21.560Z,6.23
2022-10-31T05:47:01.121Z,6.24
2022-10-31T05:49:48.810Z,6.20
2022-10-31T05:52:35.773Z,6.14
2022-10-31T05:55:09.858Z,6.12
2022-10-31T05:57:38.356Z,6.12
2022-10-31T06:00:07.356Z,6.13
2022-10-31T06:02:49.554Z,6.13
2022-10-31T06:05:34.525Z,6.15
2022-10-31T06:08:03.133Z,6.18
2022-10-31T06:10:31.631Z,6.23
2022-10-31T06:12:59.595Z,6.28
2022-10-31T06:15:38.474Z,6.31
2022-10-31T06:18:07.795Z,6.32
2022-10-31T06:20:39.236Z,6.37
2022-10-31T06:23:07.515Z,6.43
2022-10-31T06:25:36.715Z,6.49
2022-10-31T06:28:06.735Z,6.53
2022-10-31T06:30:46.784Z,6.57
2022-10-31T06:33:14.752Z,6.61
2022-10-31T06:35:48.866Z,6.65
2022-10-31T06:38:17.392Z,6.70
2022-10-31T06:40:48.082Z,6.65
2022-10-31T06:43:19.418Z,6.57
2022-10-31T06:45:48.120Z,6.50
2022-10-31T06:48:28.693Z,6.48
2022-10-31T06:51:19.461Z,6.45
2022-10-31T06:53:47.419Z,6.52
2022-10-31T06:56:17.375Z,6.57
2022-10-31T06:58:51.142Z,6.66
2022-10-31T07:01:24.468Z,6.81
2022-10-31T07:03:52.654Z,6.93
2022-10-31T07:06:21.161Z,7.05
2022-10-31T07:08:49.853Z,7.14
2022-10-31T07:11:17.657Z,7.27
2022-10-31T07:13:46.181Z,7.35
2022-10-31T07:16:15.062Z,7.44
2022-10-31T07:18:44.736Z,7.52
2022-10-31T07:21:13.186Z,7.66
2022-10-31T07:23:41.223Z,7.78
2022-10-31T07:26:29.264Z,7.93
2022-10-31T07:28:57.295Z,8.03
2022-10-31T07:31:26.628Z,8.11
2022-10-31T07:33:55.915Z,8.23
2022-10-31T07:36:29.429Z,8.29
2022-10-31T07:39:03.398Z,8.39
2022-10-31T07:41:32.279Z,8.53
2022-10-31T07:44:00.172Z,8.59
2022-10-31T07:46:47.831Z,8.65
2022-10-31T07:49:34.323Z,8.75
2022-10-31T07:52:26.617Z,8.90
2022-10-31T07:55:26.977Z,9.05
2022-10-31T07:57:59.252Z,9.15
2022-10-31T08:00:28.481Z,9.31
2022-10-31T08:03:06.009Z,9.40
2022-10-31T08:05:52.988Z,9.44
2022-10-31T08:08:33.399Z,9.50
2022-10-31T08:11:04.119Z,9.58
2022-10-31T08:13:31.908Z,9.70
2022-10-31T08:16:04.750Z,9.80
2022-10-31T08:18:35.055Z,9.85
2022-10-31T08:21:04.411Z,9.99
2022-10-31T08:23:32.145Z,10.13
2022-10-31T08:25:59.989Z,10.21
2022-10-31T08:28:27.769Z,10.31
2022-10-31T08:30:55.756Z,10.39
2022-10-31T08:33:46.788Z,10.55
2022-10-31T08:36:21.715Z,10.68
2022-10-31T08:39:04.349Z,10.82
2022-10-31T08:41:32.319Z,10.95
2022-10-31T08:44:01.217Z,11.09
2022-10-31T08:46:29.194Z,11.16
2022-10-31T08:48:57.078Z,11.32
2022-10-31T08:51:24.926Z,11.51
2022-10-31T08:53:55.246Z,11.69
2022-10-31T08:56:35.436Z,11.82
2022-10-31T08:59:05.671Z,11.97
2022-10-31T09:01:46.334Z,12.09
2022-10-31T09:04:14.212Z,12.23
2022-10-31T09:06:50.300Z,12.38
2022-10-31T09:09:29.255Z,12.52
2022-10-31T09:11:56.963Z,12.69
2022-10-31T09:14:24.678Z,12.81
2022-10-31T09:17:11.516Z,12.93
2022-10-31T09:19:53.829Z,13.09
2022-10-31T09:22:28.348Z,13.26
2022-10-31T09:24:56.223Z,13.37
2022-10-31T09:27:24.220Z,13.55
2022-10-31T09:29:53.384Z,13.63
2022-10-31T09:32:21.255Z,13.74
2022-10-31T09:34:48.956Z,13.91
2022-10-31T09:37:20.467Z,14.12
2022-10-31T09:39:48.266Z,14.19
2022-10-31T09:42:21.264Z,14.28
2022-10-31T09:44:58.297Z,14.40
2022-10-31T09:47:56.379Z,14.48
2022-10-31T09:50:45.341Z,14.58
2022-10-31T09:54:05.850Z,14.65
2022-10-31T09:56:34.203Z,14.82
2022-10-31T09:59:05.469Z,14.88
2022-10-31T10:01:56.649Z,15.01
2022-10-31T10:04:54.281Z,15.17
2022-10-31T10:07:40.091Z,15.28
2022-10-31T10:10:52.288Z,15.38
2022-10-31T10:14:04.905Z,15.53
2022-10-31T10:17:00.700Z,15.61
2022-10-31T10:19:40.082Z,15.75
2022-10-31T10:22:52.430Z,15.87
2022-10-31T10:25:45.394Z,16.00
2022-10-31T10:28:30.175Z,16.10
2022-10-31T10:31:03.629Z,16.22
2022-10-31T10:33:39.508Z,16.35
2022-10-31T10:36:19.351Z,16.51
2022-10-31T10:39:01.794Z,16.63
2022-10-31T10:41:34.639Z,16.71
2022-10-31T10:44:09.813Z,16.83
2022-10-31T10:47:11.413Z,16.93
2022-10-31T10:49:52.915Z,17.00
2022-10-31T10:52:43.381Z,17.15
2022-10-31T10:55:44.370Z,17.33
2022-10-31T10:58:12.164Z,17.44
2022-10-31T11:00:47.593Z,17.48
2022-10-31T11:03:17.802Z,17.53
2022-10-31T11:05:54.988Z,17.62
2022-10-31T11:08:32.072Z,17.72
2022-10-31T11:11:09.168Z,17.78
2022-10-31T11:13:37.749Z,17.85
2022-10-31T11:16:09.001Z,17.89
2022-10-31T11:18:46.563Z,17.94
2022-10-31T11:21:29.925Z,17.98
2022-10-31T11:24:09.910Z,18.02
2022-10-31T11:26:40.464Z,18.08
2022-10-31T11:29:27.078Z,18.16
2022-10-31T11:31:58.739Z,18.21
2022-10-31T11:34:46.926Z,18.24
2022-10-31T11:37:18.203Z,18.28
2022-10-31T11:39:54.524Z,18.30
2022-10-31T11:42:25.498Z,18.33
2022-10-31T11:44:55.058Z,18.37
2022-10-31T11:47:29.829Z,18.40
2022-10-31T11:49:58.939Z,18.38
2022-10-31T11:52:29.740Z,18.41
2022-10-31T11:55:15.105Z,18.46
2022-10-31T11:57:54.872Z,18.52
2022-10-31T12:00:24.480Z,18.55
2022-10-31T12:03:04.998Z,18.58
2022-10-31T12:05:34.049Z,18.60
2022-10-31T12:08:04.431Z,18.59
2022-10-31T12:10:41.789Z,18.58
2022-10-31T12:13:21.400Z,18.59
2022-10-31T12:16:00.314Z,18.61
2022-10-31T12:18:34.392Z,18.65
2022-10-31T12:21:14.547Z,18.71
2022-10-31T12:24:01.085Z,18.68
2022-10-31T12:26:46.674Z,18.69
2022-10-31T12:29:28.005Z,18.76
2022-10-31T12:32:19.361Z,18.82
2022-10-31T12:35:11.935Z,18.80
2022-10-31T12:37:58.152Z,18.72
2022-10-31T12:40:51.768Z,18.69
2022-10-31T12:43:41.702Z,18.71
2022-10-31T12:46:22.734Z,18.71
2022-10-31T12:48:57.401Z,18.70
2022-10-31T12:52:01.441Z,18.68
2022-10-31T12:55:05.834Z,18.68
2022-10-31T12:57:43.446Z,18.69
2022-10-31T13:00:17.174Z,18.68
2022-10-31T13:03:26.679Z,18.71
2022-10-31T13:06:03.219Z,18.78
2022-10-31T13:08:41.768Z,18.83
2022-10-31T13:11:26.841Z,18.84
2022-10-31T13:14:06.668Z,18.83
2022-10-31T13:16:38.303Z,18.85
2022-10-31T13:19:17.306Z,18.85
2022-10-31T13:22:01.487Z,18.84
2022-10-31T13:24:37.448Z,18.83
2022-10-31T13:27:15.760Z,18.80
2022-10-31T13:30:13.403Z,18.77
2022-10-31T13:32:59.805Z,18.75
2022-10-31T13:35:27.869Z,18.74
2022-10-31T13:38:12.261Z,18.73
2022-10-31T13:40:49.076Z,18.69
2022-10-31T13:43:46.527Z,18.64
2022-10-31T13:46:26.952Z,18.61
2022-10-31T13:48:54.709Z,18.59
2022-10-31T13:51:29.476Z,18.60
2022-10-31T13:54:02.100Z,18.58
2022-10-31T13:56:35.119Z,18.53
2022-10-31T13:59:12.944Z,18.56
2022-10-31T14:01:49.667Z,18.59
2022-10-31T14:04:34.866Z,18.62
2022-10-31T14:07:12.254Z,18.58
2022-10-31T14:09:55.726Z,18.52
2022-10-31T14:12:44.166Z,18.51
2022-10-31T14:15:29.074Z,18.42
2022-10-31T14:18:01.604Z,18.34
2022-10-31T14:20:36.170Z,18.33
2022-10-31T14:23:29.579Z,18.32
2022-10-31T14:26:27.443Z,18.29
2022-10-31T14:28:57.792Z,18.27
2022-10-31T14:31:38.083Z,18.21
2022-10-31T14:34:27.102Z,18.11
2022-10-31T14:37:19.709Z,18.02
2022-10-31T14:40:14.575Z,17.90
2022-10-31T14:42:54.590Z,17.80
2022-10-31T14:45:48.979Z,17.72
2022-10-31T14:48:35.822Z,17.63
2022-10-31T14:51:11.543Z,17.54
2022-10-31T14:53:55.311Z,17.47
2022-10-31T14:56:30.295Z,17.40
2022-10-31T14:59:03.522Z,17.29
2022-10-31T15:01:37.789Z,17.19
2022-10-31T15:04:28.168Z,17.12
2022-10-31T15:07:06.471Z,16.99
2022-10-31T15:09:37.921Z,16.86
2022-10-31T15:12:40.980Z,16.70
2022-10-31T15:15:17.906Z,16.56
2022-10-31T15:17:50.354Z,16.46
2022-10-31T15:20:21.287Z,16.38
2022-10-31T15:22:49.566Z,16.19
2022-10-31T15:25:23.607Z,16.02
2022-10-31T15:27:53.566Z,15.83
2022-10-31T15:30:24.148Z,15.65
2022-10-31T15:32:58.140Z,15.41
2022-10-31T15:35:30.263Z,15.29
2022-10-31T15:38:00.571Z,15.21
2022-10-31T15:40:29.341Z,15.09
2022-10-31T15:43:05.688Z,14.88
2022-10-31T15:45:33.769Z,14.71
2022-10-31T15:48:05.612Z,14.68
2022-10-31T15:50:41.626Z,14.66
2022-10-31T15:53:23.466Z,14.52
2022-10-31T15:55:58.640Z,14.46
2022-10-31T15:58:29.361Z,14.27
2022-10-31T16:01:06.119Z,14.12
2022-10-31T16:03:35.204Z,13.99
2022-10-31T16:06:05.740Z,13.87
2022-10-31T16:08:51.535Z,13.79
2022-10-31T16:11:39.987Z,13.71
2022-10-31T16:14:23.178Z,13.63
2022-10-31T16:16:56.004Z,13.52
2022-10-31T16:19:28.365Z,13.42
2022-10-31T16:22:36.659Z,13.36
2022-10-31T16:25:13.780Z,13.25
2022-10-31T16:27:53.865Z,13.17
2022-10-31T16:30:41.697Z,13.10
2022-10-31T16:33:31.964Z,12.99
2022-10-31T16:36:29.857Z,12.96
2022-10-31T16:38:51.571Z,12.89
2022-10-31T16:41:20.446Z,12.81
2022-10-31T16:43:52.270Z,12.76
2022-10-31T16:46:24.675Z,12.71
2022-10-31T16:48:53.006Z,12.64
2022-10-31T16:51:21.202Z,12.58
2022-10-31T16:53:53.100Z,12.52
2022-10-31T16:56:35.199Z,12.44
2022-10-31T16:59:05.523Z,12.31
2022-10-31T17:01:33.960Z,12.18
2022-10-31T17:04:01.996Z,12.12
2022-10-31T17:06:29.794Z,12.09
2022-10-31T17:08:57.625Z,12.08
2022-10-31T17:11:27.226Z,12.04
2022-10-31T17:13:57.045Z,12.01
2022-10-31T17:16:24.799Z,11.94
2022-10-31T17:18:52.573Z,11.88
2022-10-31T17:21:23.319Z,11.79
2022-10-31T17:23:51.180Z,11.71
2022-10-31T17:26:19.940Z,11.58
2022-10-31T17:28:47.687Z,11.49
2022-10-31T17:31:24.493Z,11.39
2022-10-31T17:34:01.834Z,11.27
2022-10-31T17:36:33.202Z,11.21
2022-10-31T17:39:01.577Z,11.19
2022-10-31T17:41:29.472Z,11.16
2022-10-31T17:43:58.349Z,11.13
2022-10-31T17:46:26.516Z,11.12
2022-10-31T17:48:54.444Z,11.07
2022-10-31T17:51:22.313Z,11.00
2022-10-31T17:53:50.091Z,10.93
2022-10-31T17:56:17.841Z,10.91
2022-10-31T17:58:45.952Z,10.85
2022-10-31T18:01:15.908Z,10.79
2022-10-31T18:03:43.936Z,10.75
2022-10-31T18:06:14.571Z,10.72
2022-10-31T18:08:44.005Z,10.70
2022-10-31T18:11:19.883Z,10.70
2022-10-31T18:13:47.704Z,10.67
2022-10-31T18:16:19.280Z,10.61
2022-10-31T18:18:52.424Z,10.55
2022-10-31T18:21:20.882Z,10.52
2022-10-31T18:23:48.738Z,10.49
2022-10-31T18:26:16.658Z,10.45
2022-10-31T18:28:44.422Z,10.45
2022-10-31T18:31:12.264Z,10.46
2022-10-31T18:33:42.608Z,10.45
2022-10-31T18:36:12.174Z,10.40
2022-10-31T18:38:45.065Z,10.42
2022-10-31T18:41:14.091Z,10.44
2022-10-31T18:43:42.696Z,10.44
2022-10-31T18:46:14.352Z,10.44
2022-10-31T18:48:44.164Z,10.44
2022-10-31T18:51:14.648Z,10.49
2022-10-31T18:53:42.554Z,10.53
2022-10-31T18:56:11.448Z,10.53
2022-10-31T18:58:39.213Z,10.51
2022-10-31T19:01:08.890Z,10.47
2022-10-31T19:03:38.031Z,10.47
2022-10-31T19:06:07.107Z,10.53
2022-10-31T19:08:36.231Z,10.53
2022-10-31T19:11:14.725Z,10.53
2022-10-31T19:13:43.950Z,10.60
2022-10-31T19:16:14.539Z,10.73
2022-10-31T19:18:44.287Z,10.81
2022-10-31T19:21:15.304Z,10.90
2022-10-31T19:23:45.073Z,10.96
2022-10-31T19:26:14.020Z,11.03
2022-10-31T19:28:42.191Z,11.07
2022-10-31T19:31:10.811Z,11.07
2022-10-31T19:33:39.053Z,11.07
2022-10-31T19:36:12.190Z,11.06
2022-10-31T19:38:42.492Z,11.06
2022-10-31T19:41:13.421Z,11.08
2022-10-31T19:43:42.202Z,11.11
2022-10-31T19:46:22.206Z,11.15
2022-10-31T19:48:55.951Z,11.17
2022-10-31T19:51:23.694Z,11.18
2022-10-31T19:53:52.320Z,11.18
2022-10-31T19:56:22.345Z,11.20
2022-10-31T19:58:50.409Z,11.20
2022-10-31T20:01:20.803Z,11.20
2022-10-31T20:03:50.368Z,11.21
2022-10-31T20:06:36.835Z,11.21
2022-10-31T20:09:09.796Z,11.21
2022-10-31T20:11:39.144Z,11.19
2022-10-31T20:14:08.589Z,11.17
2022-10-31T20:16:36.591Z,11.14
2022-10-31T20:19:04.766Z,11.12
2022-10-31T20:21:36.598Z,11.11
2022-10-31T20:24:07.357Z,11.09
2022-10-31T20:26:35.729Z,11.05
2022-10-31T20:29:04.026Z,10.97
2022-10-31T20:31:34.652Z,10.93
2022-10-31T20:34:02.767Z,10.92
2022-10-31T20:36:31.047Z,10.88
2022-10-31T20:39:00.301Z,10.87
2022-10-31T20:41:28.270Z,10.87
2022-10-31T20:43:56.049Z,10.88
2022-10-31T20:46:26.329Z,10.89
2022-10-31T20:48:54.929Z,10.88
2022-10-31T20:51:25.711Z,10.89
2022-10-31T20:53:55.587Z,10.85
2022-10-31T20:56:25.944Z,10.83
2022-10-31T20:58:55.351Z,10.83
2022-10-31T21:01:29.467Z,10.82
2022-10-31T21:03:58.748Z,10.84
2022-10-31T21:06:27.798Z,10.81
2022-10-31T21:08:56.837Z,10.80
2022-10-31T21:11:26.758Z,10.82
2022-10-31T21:13:54.646Z,10.82
2022-10-31T21:16:25.799Z,10.84
2022-10-31T21:18:54.583Z,10.85
2022-10-31T21:21:28.985Z,10.85
2022-10-31T21:24:02.318Z,10.83
2022-10-31T21:26:36.477Z,10.83
2022-10-31T21:29:06.082Z,10.79
2022-10-31T21:31:36.205Z,10.81
2022-10-31T21:34:04.016Z,10.80
2022-10-31T21:36:32.569Z,10.78
2022-10-31T21:39:00.823Z,10.77
2022-10-31T21:41:28.736Z,10.78
2022-10-31T21:43:56.527Z,10.78
2022-10-31T21:46:30.419Z,10.77
2022-10-31T21:48:59.212Z,10.77
2022-10-31T21:51:36.176Z,10.76
2022-10-31T21:54:23.145Z,10.78
2022-10-31T21:56:51.789Z,10.79
2022-10-31T21:59:19.596Z,10.78
2022-10-31T22:01:47.461Z,10.76
2022-10-31T22:04:15.667Z,10.74
2022-10-31T22:06:43.663Z,10.74
2022-10-31T22:09:13.623Z,10.74
2022-10-31T22:11:42.887Z,10.73
2022-10-31T22:14:13.087Z,10.70
2022-10-31T22:16:41.664Z,10.72
2022-10-31T22:19:11.867Z,10.77
2022-10-31T22:21:43.667Z,10.78
2022-10-31T22:24:12.180Z,10.77
2022-10-31T22:26:40.145Z,10.74
2022-10-31T22:29:12.280Z,10.73
2022-10-31T22:31:42.775Z,10.70
2022-10-31T22:34:11.870Z,10.71
2022-10-31T22:36:39.840Z,10.77
2022-10-31T22:39:08.199Z,10.82
2022-10-31T22:41:37.004Z,10.85
2022-10-31T22:44:05.718Z,10.80
2022-10-31T22:46:36.349Z,10.82
2022-10-31T22:49:07.402Z,10.83
2022-10-31T22:51:38.034Z,10.81
2022-10-31T22:54:09.820Z,10.80
2022-10-31T22:56:38.507Z,10.81
2022-10-31T22:59:06.725Z,10.82
2022-10-31T23:01:34.800Z,10.85
2022-10-31T23:04:03.260Z,10.86
2022-10-31T23:06:33.198Z,10.86
2022-10-31T23:09:03.355Z,10.85
2022-10-31T23:11:37.933Z,10.87
2022-10-31T23:14:10.945Z,10.87
2022-10-31T23:16:48.027Z,10.90
2022-10-31T23:19:27.947Z,10.87
2022-10-31T23:22:00.395Z,10.85
2022-10-31T23:24:32.096Z,10.86
2022-10-31T23:27:10.490Z,10.85
2022-10-31T23:29:50.356Z,10.90
2022-10-31T23:32:32.618Z,10.88
2022-10-31T23:35:05.209Z,10.85
2022-10-31T23:37:35.298Z,10.81
2022-10-31T23:40:03.743Z,10.79
2022-10-31T23:42:31.606Z,10.81
2022-10-31T23:44:59.463Z,10.80
2022-10-31T23:47:27.375Z,10.79
2022-10-31T23:49:55.413Z,10.78
2022-10-31T23:52:23.424Z,10.75
2022-10-31T23:54:51.286Z,10.74
2022-10-31T23:57:19.118Z,10.74
2022-10-31T23:59:48.131Z,10.74
